createdAt,value
2017-06-24T00:00:55.214Z,6.57
2017-06-24T00:03:23.505Z,10.93
2017-06-24T00:05:51.762Z,8.00
2017-06-24T00:08:20.021Z,9.33
2017-06-24T00:10:48.286Z,6.70
2017-06-24T00:13:16.520Z,6.03
2017-06-24T00:15:44.853Z,6.97
2017-06-24T00:18:13.189Z,6.47
2017-06-24T00:20:42.266Z,6.17
2017-06-24T00:23:10.582Z,7.07
2017-06-24T00:25:39.701Z,6.70
2017-06-24T00:28:08.120Z,6.30
2017-06-24T00:30:36.330Z,5.43
2017-06-24T00:33:04.581Z,6.10
2017-06-24T00:35:33.579Z,5.97
2017-06-24T00:38:02.712Z,7.43
2017-06-24T00:40:30.990Z,6.20
2017-06-24T00:42:59.243Z,6.80
2017-06-24T00:45:27.476Z,6.20
2017-06-24T00:47:55.808Z,5.97
2017-06-24T00:50:24.056Z,6.90
2017-06-24T00:52:53.141Z,5.57
2017-06-24T00:55:22.202Z,10.40
2017-06-24T00:57:50.741Z,6.00
2017-06-24T01:00:19.117Z,5.73
2017-06-24T01:02:48.282Z,5.73
2017-06-24T01:05:16.639Z,6.80
2017-06-24T01:07:45.064Z,7.97
2017-06-24T01:10:14.382Z,8.40
2017-06-24T01:12:42.747Z,6.90
2017-06-24T01:15:10.989Z,7.97
2017-06-24T01:17:39.552Z,5.90
2017-06-24T01:20:07.799Z,6.17
2017-06-24T01:22:36.100Z,8.53
2017-06-24T01:25:04.329Z,7.10
2017-06-24T01:27:32.599Z,6.77
2017-06-24T01:30:01.592Z,6.30
2017-06-24T01:32:30.381Z,9.17
2017-06-24T01:34:58.729Z,6.80
2017-06-24T01:37:27.041Z,6.60
2017-06-24T01:39:55.276Z,7.30
2017-06-24T01:42:23.608Z,5.80
2017-06-24T01:44:51.857Z,6.03
2017-06-24T01:47:20.117Z,5.87
2017-06-24T01:49:49.145Z,6.33
2017-06-24T01:52:17.434Z,6.67
2017-06-24T01:54:45.815Z,14.67
2017-06-24T01:57:14.045Z,17.43
2017-06-24T01:59:42.370Z,15.80
2017-06-24T02:02:10.614Z,12.33
2017-06-24T02:04:38.883Z,9.67
2017-06-24T02:07:07.144Z,7.93
2017-06-24T02:09:36.273Z,8.33
2017-06-24T02:12:04.505Z,7.10
2017-06-24T02:14:33.644Z,6.60
2017-06-24T02:17:01.884Z,6.67
2017-06-24T02:19:31.012Z,6.90
2017-06-24T02:21:59.254Z,7.50
2017-06-24T02:24:28.385Z,5.80
2017-06-24T02:26:56.663Z,7.03
2017-06-24T02:29:24.929Z,7.40
2017-06-24T02:31:53.234Z,8.90
2017-06-24T02:34:21.501Z,8.40
2017-06-24T02:36:49.722Z,8.10
2017-06-24T02:39:18.857Z,7.30
2017-06-24T02:41:47.128Z,6.43
2017-06-24T02:44:15.390Z,6.53
2017-06-24T02:46:43.723Z,18.50
2017-06-24T02:49:11.998Z,15.00
2017-06-24T02:51:40.343Z,9.53
2017-06-24T02:54:08.662Z,7.90
2017-06-24T02:56:37.730Z,6.67
2017-06-24T02:59:05.957Z,9.53
2017-06-24T03:01:34.351Z,8.60
2017-06-24T03:04:02.669Z,8.20
2017-06-24T03:06:30.927Z,6.30
2017-06-24T03:08:59.195Z,6.00
2017-06-24T03:11:27.458Z,7.10
2017-06-24T03:13:55.697Z,7.20
2017-06-24T03:16:24.829Z,6.50
2017-06-24T03:18:53.121Z,6.20
2017-06-24T03:21:21.477Z,5.90
2017-06-24T03:23:49.757Z,6.10
2017-06-24T03:26:18.033Z,7.00
2017-06-24T03:28:46.337Z,7.50
2017-06-24T03:31:14.685Z,6.33
2017-06-24T03:33:42.925Z,6.77
2017-06-24T03:36:11.955Z,7.20
2017-06-24T03:38:40.189Z,7.90
2017-06-24T03:41:09.239Z,7.83
2017-06-24T03:43:37.558Z,7.10
2017-06-24T03:46:06.595Z,6.70
2017-06-24T03:48:34.929Z,7.00
2017-06-24T03:51:03.162Z,7.47
2017-06-24T03:53:31.394Z,6.40
2017-06-24T03:55:59.705Z,6.60
2017-06-24T03:58:27.932Z,6.30
2017-06-24T04:00:57.133Z,6.37
2017-06-24T04:03:25.364Z,6.23
2017-06-24T04:05:53.596Z,5.37
2017-06-24T04:08:21.891Z,6.30
2017-06-24T04:10:50.194Z,5.27
2017-06-24T04:13:18.545Z,5.70
2017-06-24T04:15:46.781Z,6.77
2017-06-24T04:18:15.806Z,6.73
2017-06-24T04:20:44.101Z,6.20
2017-06-24T04:23:12.445Z,7.07
2017-06-24T04:25:41.657Z,6.17
2017-06-24T04:28:09.953Z,6.57
2017-06-24T04:30:38.240Z,5.80
2017-06-24T04:33:06.589Z,6.67
2017-06-24T04:35:34.897Z,5.73
2017-06-24T04:38:03.273Z,5.67
2017-06-24T04:40:31.623Z,5.43
2017-06-24T04:42:59.952Z,10.70
2017-06-24T04:45:28.270Z,6.50
2017-06-24T04:47:56.841Z,6.93
2017-06-24T04:50:25.183Z,6.20
2017-06-24T04:52:53.520Z,5.60
2017-06-24T04:55:21.765Z,5.30
2017-06-24T04:57:50.017Z,6.57
2017-06-24T05:00:19.081Z,6.10
2017-06-24T05:02:47.417Z,6.07
2017-06-24T05:05:15.709Z,5.43
2017-06-24T05:07:44.301Z,6.53
2017-06-24T05:10:12.535Z,5.70
2017-06-24T05:12:40.768Z,5.90
2017-06-24T05:15:09.021Z,6.00
2017-06-24T05:17:37.253Z,5.60
2017-06-24T05:20:06.386Z,6.00
2017-06-24T05:22:34.624Z,5.63
2017-06-24T05:25:03.642Z,5.53
2017-06-24T05:27:31.935Z,5.77
2017-06-24T05:30:00.211Z,6.70
2017-06-24T05:32:28.477Z,6.20
2017-06-24T05:34:56.772Z,4.90
2017-06-24T05:37:25.006Z,5.83
2017-06-24T05:39:53.408Z,4.93
2017-06-24T05:42:21.636Z,5.50
2017-06-24T05:44:50.651Z,6.70
2017-06-24T05:47:18.949Z,5.63
2017-06-24T05:49:47.222Z,7.00
2017-06-24T05:52:15.449Z,6.10
2017-06-24T05:54:44.468Z,6.20
2017-06-24T05:57:12.718Z,6.13
2017-06-24T05:59:41.785Z,5.80
2017-06-24T06:02:10.076Z,6.33
2017-06-24T06:04:38.412Z,4.87
2017-06-24T06:07:06.744Z,5.97
2017-06-24T06:09:35.941Z,5.43
2017-06-24T06:12:04.149Z,5.70
2017-06-24T06:14:32.424Z,4.90
2017-06-24T06:17:00.753Z,4.63
2017-06-24T06:19:29.829Z,4.23
2017-06-24T06:21:58.067Z,4.67
2017-06-24T06:24:26.361Z,3.90
2017-06-24T06:26:54.593Z,4.80
2017-06-24T06:29:23.671Z,4.63
2017-06-24T06:31:51.912Z,3.70
2017-06-24T06:34:20.150Z,4.13
2017-06-24T06:36:48.585Z,3.63
2017-06-24T06:39:16.813Z,3.37
2017-06-24T06:41:45.090Z,5.10
2017-06-24T06:44:13.349Z,3.20
2017-06-24T06:46:42.365Z,4.13
2017-06-24T06:49:10.613Z,3.10
2017-06-24T06:51:39.635Z,2.93
2017-06-24T06:54:07.876Z,3.20
2017-06-24T06:56:36.889Z,3.60
2017-06-24T06:59:05.201Z,2.80
2017-06-24T07:01:33.583Z,4.50
2017-06-24T07:04:01.815Z,5.60
2017-06-24T07:06:30.194Z,3.67
2017-06-24T07:08:59.065Z,3.60
2017-06-24T07:11:28.094Z,3.73
2017-06-24T07:13:56.325Z,3.23
2017-06-24T07:16:24.579Z,3.17
2017-06-24T07:18:52.825Z,3.80
2017-06-24T07:21:21.173Z,3.67
2017-06-24T07:23:50.169Z,3.50
2017-06-24T07:26:18.490Z,3.33
2017-06-24T07:28:46.853Z,2.77
2017-06-24T07:31:15.195Z,2.80
2017-06-24T07:33:44.287Z,3.10
2017-06-24T07:36:12.598Z,2.80
2017-06-24T07:38:40.857Z,3.30
2017-06-24T07:41:09.086Z,4.00
2017-06-24T07:43:37.420Z,3.47
2017-06-24T07:46:05.653Z,4.67
2017-06-24T07:48:34.757Z,3.60
2017-06-24T07:51:03.769Z,3.83
2017-06-24T07:53:32.016Z,3.10
2017-06-24T07:56:00.989Z,4.33
2017-06-24T07:58:29.245Z,3.30
2017-06-24T08:00:57.529Z,2.97
2017-06-24T08:03:25.785Z,2.93
2017-06-24T08:05:54.017Z,3.20
2017-06-24T08:08:23.038Z,3.20
2017-06-24T08:10:51.324Z,3.30
2017-06-24T08:13:19.585Z,3.00
2017-06-24T08:15:47.905Z,3.27
2017-06-24T08:18:16.258Z,3.17
2017-06-24T08:20:44.733Z,3.07
2017-06-24T08:23:13.055Z,3.20
2017-06-24T08:25:41.404Z,3.03
2017-06-24T08:28:09.665Z,4.00
2017-06-24T08:30:37.909Z,3.37
2017-06-24T08:33:07.034Z,5.87
2017-06-24T08:35:35.318Z,3.83
2017-06-24T08:38:03.631Z,3.40
2017-06-24T08:40:31.893Z,3.50
2017-06-24T08:43:00.137Z,3.20
2017-06-24T08:45:28.389Z,4.20
2017-06-24T08:47:56.704Z,3.20
2017-06-24T08:50:25.081Z,3.50
2017-06-24T08:52:53.333Z,3.70
2017-06-24T08:55:21.585Z,3.90
2017-06-24T08:57:50.626Z,4.27
2017-06-24T09:00:18.938Z,3.70
2017-06-24T09:02:47.181Z,3.77
2017-06-24T09:05:15.540Z,3.70
2017-06-24T09:07:43.780Z,3.37
2017-06-24T09:10:12.807Z,3.23
2017-06-24T09:12:41.109Z,4.73
2017-06-24T09:15:09.431Z,3.67
2017-06-24T09:17:38.489Z,3.37
2017-06-24T09:20:06.744Z,3.00
2017-06-24T09:22:34.973Z,3.43
2017-06-24T09:25:04.000Z,6.10
2017-06-24T09:27:32.252Z,3.73
2017-06-24T09:30:01.371Z,3.50
2017-06-24T09:32:29.616Z,4.00
2017-06-24T09:34:57.886Z,4.13
2017-06-24T09:37:26.881Z,3.33
2017-06-24T09:39:56.011Z,3.30
2017-06-24T09:42:24.295Z,4.00
2017-06-24T09:44:52.662Z,4.60
2017-06-24T09:47:20.937Z,3.50
2017-06-24T09:49:49.245Z,4.20
2017-06-24T09:52:17.498Z,4.00
2017-06-24T09:54:47.651Z,2.93
2017-06-24T09:57:19.975Z,3.50
2017-06-24T09:59:48.633Z,3.60
2017-06-24T10:02:16.941Z,4.10
2017-06-24T10:04:45.261Z,3.07
2017-06-24T10:07:13.529Z,3.33
2017-06-24T10:09:41.912Z,3.00
2017-06-24T10:12:10.252Z,2.90
2017-06-24T10:14:38.478Z,3.30
2017-06-24T10:17:07.505Z,2.90
2017-06-24T10:19:35.818Z,3.50
2017-06-24T10:22:04.081Z,3.37
2017-06-24T10:24:32.313Z,3.40
2017-06-24T10:27:00.580Z,3.53
2017-06-24T10:29:29.682Z,3.13
2017-06-24T10:31:57.984Z,2.47
2017-06-24T10:34:26.232Z,3.00
2017-06-24T10:36:54.498Z,3.10
2017-06-24T10:39:24.245Z,3.13
2017-06-24T10:41:52.521Z,3.37
2017-06-24T10:44:21.481Z,2.77
2017-06-24T10:46:49.805Z,2.80
2017-06-24T10:49:18.057Z,3.00
2017-06-24T10:51:46.542Z,3.00
2017-06-24T10:54:14.791Z,2.83
2017-06-24T10:56:43.916Z,2.97
2017-06-24T10:59:12.143Z,2.53
2017-06-24T11:01:41.229Z,2.77
2017-06-24T11:04:09.557Z,3.70
2017-06-24T11:06:37.934Z,2.27
2017-06-24T11:09:06.177Z,2.60
2017-06-24T11:11:40.103Z,2.70
2017-06-24T11:14:08.338Z,3.93
2017-06-24T11:16:36.649Z,8.33
2017-06-24T11:19:04.953Z,25.43
2017-06-24T11:21:33.270Z,8.30
2017-06-24T11:24:01.529Z,5.57
2017-06-24T11:26:30.002Z,6.60
2017-06-24T11:28:58.372Z,4.30
2017-06-24T11:31:26.711Z,8.77
2017-06-24T11:33:55.755Z,5.57
2017-06-24T11:36:24.000Z,7.00
2017-06-24T11:38:52.253Z,3.93
2017-06-24T11:41:20.496Z,4.30
2017-06-24T11:43:48.836Z,4.17
2017-06-24T11:46:17.147Z,4.30
2017-06-24T11:48:45.481Z,4.83
2017-06-24T11:51:13.717Z,4.73
2017-06-24T11:53:42.733Z,4.50
2017-06-24T11:56:11.124Z,4.73
2017-06-24T11:58:39.377Z,4.40
2017-06-24T12:01:07.608Z,5.27
2017-06-24T12:03:36.001Z,6.00
2017-06-24T12:06:04.241Z,5.40
2017-06-24T12:08:32.600Z,5.77
2017-06-24T12:11:00.848Z,6.00
2017-06-24T12:13:29.877Z,5.70
2017-06-24T12:15:58.112Z,5.47
2017-06-24T12:18:27.254Z,5.53
2017-06-24T12:20:55.537Z,14.93
2017-06-24T12:23:23.957Z,5.70
2017-06-24T12:25:53.239Z,6.87
2017-06-24T12:28:21.513Z,5.43
2017-06-24T12:30:49.854Z,5.80
2017-06-24T12:33:18.177Z,5.90
2017-06-24T12:35:47.197Z,5.47
2017-06-24T12:38:15.497Z,5.90
2017-06-24T12:40:43.883Z,6.40
2017-06-24T12:43:12.118Z,5.67
2017-06-24T12:45:40.432Z,6.30
2017-06-24T12:48:08.720Z,5.93
2017-06-24T12:50:37.060Z,5.53
2017-06-24T12:53:05.296Z,5.97
2017-06-24T12:55:34.507Z,5.73
2017-06-24T12:58:02.729Z,6.03
2017-06-24T13:00:31.098Z,5.20
2017-06-24T13:02:59.414Z,5.00
2017-06-24T13:05:27.689Z,4.20
2017-06-24T13:07:55.921Z,4.60
2017-06-24T13:10:24.178Z,4.50
2017-06-24T13:12:52.535Z,5.27
2017-06-24T13:15:21.689Z,4.93
2017-06-24T13:17:49.937Z,4.70
2017-06-24T13:20:18.215Z,5.67
2017-06-24T13:22:47.292Z,4.50
2017-06-24T13:25:16.324Z,4.50
2017-06-24T13:27:46.222Z,4.87
2017-06-24T13:30:15.787Z,5.07
2017-06-24T13:32:44.767Z,4.30
2017-06-24T13:35:14.792Z,4.00
2017-06-24T13:37:43.672Z,4.10
2017-06-24T13:40:12.886Z,6.10
2017-06-24T13:42:41.288Z,5.30
2017-06-24T13:45:09.596Z,4.70
2017-06-24T13:47:37.870Z,4.70
2017-06-24T13:50:06.105Z,5.50
2017-06-24T13:52:34.361Z,4.40
2017-06-24T13:55:03.362Z,4.33
2017-06-24T13:57:32.370Z,4.20
2017-06-24T14:00:00.628Z,3.67
2017-06-24T14:02:28.936Z,3.87
2017-06-24T14:04:57.177Z,4.90
2017-06-24T14:07:26.313Z,4.60
2017-06-24T14:09:55.596Z,4.60
2017-06-24T14:12:25.370Z,5.37
2017-06-24T14:14:54.693Z,5.53
2017-06-24T14:17:24.184Z,4.33
2017-06-24T14:19:53.096Z,4.87
2017-06-24T14:22:22.792Z,3.77
2017-06-24T14:24:51.605Z,4.33
2017-06-24T14:27:21.949Z,5.80
2017-06-24T14:29:50.217Z,6.37
2017-06-24T14:32:18.473Z,5.20
2017-06-24T14:34:46.802Z,4.13
2017-06-24T14:37:15.140Z,4.60
2017-06-24T14:39:43.378Z,4.30
2017-06-24T14:42:12.393Z,5.00
2017-06-24T14:44:40.731Z,5.50
2017-06-24T14:47:08.991Z,4.07
2017-06-24T14:49:37.228Z,4.20
2017-06-24T14:52:05.601Z,4.37
2017-06-24T14:54:33.889Z,4.57
2017-06-24T14:57:02.267Z,4.40
2017-06-24T14:59:30.498Z,4.83
2017-06-24T15:01:59.501Z,4.27
2017-06-24T15:04:28.522Z,4.60
2017-06-24T15:06:56.837Z,4.37
2017-06-24T15:09:25.092Z,4.77
2017-06-24T15:11:53.360Z,3.70
2017-06-24T15:14:21.605Z,3.90
2017-06-24T15:16:50.006Z,4.20
2017-06-24T15:19:18.255Z,3.53
2017-06-24T15:21:46.510Z,4.90
2017-06-24T15:24:15.544Z,4.53
2017-06-24T15:26:43.898Z,3.60
2017-06-24T15:29:12.918Z,5.20
2017-06-24T15:31:41.197Z,3.67
2017-06-24T15:34:09.456Z,3.73
2017-06-24T15:36:37.754Z,3.97
2017-06-24T15:39:06.008Z,3.87
2017-06-24T15:41:34.249Z,3.70
2017-06-24T15:44:03.293Z,3.90
2017-06-24T15:46:31.569Z,4.07
2017-06-24T15:49:00.021Z,3.53
2017-06-24T15:51:28.326Z,3.93
2017-06-24T15:53:56.583Z,4.07
2017-06-24T15:56:24.881Z,4.00
2017-06-24T15:58:53.129Z,4.30
2017-06-24T16:01:21.365Z,3.67
2017-06-24T16:03:50.365Z,4.47
2017-06-24T16:06:18.703Z,3.90
2017-06-24T16:08:46.969Z,4.20
2017-06-24T16:11:15.257Z,3.70
2017-06-24T16:13:43.598Z,3.77
2017-06-24T16:16:11.877Z,3.50
2017-06-24T16:18:40.871Z,4.10
2017-06-24T16:21:09.137Z,4.10
2017-06-24T16:23:38.186Z,4.13
2017-06-24T16:26:06.493Z,3.80
2017-06-24T16:28:34.978Z,3.60
2017-06-24T16:31:04.060Z,3.33
2017-06-24T16:33:33.113Z,4.17
2017-06-24T16:36:01.546Z,3.30
2017-06-24T16:38:30.609Z,3.20
2017-06-24T16:40:58.853Z,3.40
2017-06-24T16:43:27.101Z,3.97
2017-06-24T16:45:55.398Z,3.83
2017-06-24T16:48:23.649Z,3.37
2017-06-24T16:50:51.972Z,3.57
2017-06-24T16:53:20.273Z,3.50
2017-06-24T16:55:48.520Z,3.20
2017-06-24T16:58:16.730Z,2.73
2017-06-24T17:00:45.758Z,3.47
2017-06-24T17:03:14.049Z,3.73
2017-06-24T17:05:42.317Z,3.30
2017-06-24T17:08:10.613Z,3.00
2017-06-24T17:10:38.968Z,3.20
2017-06-24T17:13:07.286Z,2.80
2017-06-24T17:15:35.630Z,3.37
2017-06-24T17:18:03.897Z,2.90
2017-06-24T17:20:32.145Z,3.17
2017-06-24T17:23:00.391Z,3.30
2017-06-24T17:25:28.742Z,4.90
2017-06-24T17:27:56.994Z,4.60
2017-06-24T17:30:25.234Z,3.97
2017-06-24T17:32:54.274Z,3.20
2017-06-24T17:35:22.501Z,3.70
2017-06-24T17:37:51.576Z,2.83
2017-06-24T17:40:19.919Z,3.93
2017-06-24T17:42:48.175Z,5.07
2017-06-24T17:45:16.442Z,9.80
2017-06-24T17:47:44.705Z,8.40
2017-06-24T17:50:13.775Z,7.17
2017-06-24T17:52:42.108Z,3.93
2017-06-24T17:55:10.353Z,4.27
2017-06-24T17:57:39.476Z,2.67
2017-06-24T18:00:07.715Z,2.97
2017-06-24T18:02:36.857Z,2.30
2017-06-24T18:05:05.598Z,3.40
2017-06-24T18:07:33.930Z,3.30
2017-06-24T18:10:02.210Z,3.70
2017-06-24T18:12:30.483Z,4.10
2017-06-24T18:14:58.717Z,3.10
2017-06-24T18:17:27.017Z,3.63
2017-06-24T18:19:55.406Z,5.87
2017-06-24T18:22:23.728Z,5.20
2017-06-24T18:24:52.767Z,4.50
2017-06-24T18:27:21.038Z,3.40
2017-06-24T18:29:49.264Z,3.80
2017-06-24T18:32:18.281Z,4.53
2017-06-24T18:34:46.577Z,4.20
2017-06-24T18:37:14.953Z,3.80
2017-06-24T18:39:43.214Z,3.53
2017-06-24T18:42:11.461Z,4.03
2017-06-24T18:44:40.500Z,4.43
2017-06-24T18:47:08.737Z,3.63
2017-06-24T18:49:37.873Z,3.30
2017-06-24T18:52:06.109Z,3.60
2017-06-24T18:54:35.213Z,3.87
2017-06-24T18:57:03.528Z,3.67
2017-06-24T18:59:31.902Z,3.50
2017-06-24T19:02:00.173Z,2.97
2017-06-24T19:04:28.497Z,3.17
2017-06-24T19:06:57.499Z,3.10
2017-06-24T19:09:25.740Z,2.83
2017-06-24T19:11:53.980Z,3.30
2017-06-24T19:14:22.346Z,3.07
2017-06-24T19:16:51.352Z,2.87
2017-06-24T19:19:19.593Z,3.23
2017-06-24T19:21:48.674Z,3.10
2017-06-24T19:24:16.897Z,2.83
2017-06-24T19:26:45.160Z,3.03
2017-06-24T19:29:13.487Z,3.97
2017-06-24T19:31:41.736Z,3.27
2017-06-24T19:34:10.041Z,2.93
2017-06-24T19:36:38.290Z,2.80
2017-06-24T19:39:06.555Z,3.87
2017-06-24T19:41:34.882Z,2.70
2017-06-24T19:44:03.150Z,2.90
2017-06-24T19:46:31.407Z,3.63
2017-06-24T19:48:59.682Z,3.63
2017-06-24T19:51:27.975Z,2.97
2017-06-24T19:53:56.323Z,2.87
2017-06-24T19:56:24.593Z,3.27
2017-06-24T19:58:52.817Z,3.33
2017-06-24T20:01:21.860Z,3.77
2017-06-24T20:03:50.155Z,3.43
2017-06-24T20:06:18.540Z,3.70
2017-06-24T20:08:46.753Z,2.90
2017-06-24T20:11:15.877Z,3.00
2017-06-24T20:13:44.104Z,3.60
2017-06-24T20:16:13.208Z,2.70
2017-06-24T20:18:42.255Z,4.17
2017-06-24T20:21:10.530Z,5.03
2017-06-24T20:23:38.765Z,3.90
2017-06-24T20:26:07.102Z,3.13
2017-06-24T20:28:35.358Z,3.30
2017-06-24T20:31:03.713Z,3.40
2017-06-24T20:33:31.950Z,3.07
2017-06-24T20:36:00.281Z,3.43
2017-06-24T20:38:28.516Z,3.63
2017-06-24T20:40:57.649Z,4.20
2017-06-24T20:43:25.897Z,4.20
2017-06-24T20:45:54.909Z,3.47
2017-06-24T20:48:23.150Z,3.73
2017-06-24T20:50:52.180Z,3.00
2017-06-24T20:53:20.420Z,3.43
2017-06-24T20:55:49.452Z,3.53
2017-06-24T20:58:17.693Z,3.60
2017-06-24T21:00:46.723Z,8.43
2017-06-24T21:03:14.999Z,3.60
2017-06-24T21:05:43.246Z,3.80
2017-06-24T21:08:11.497Z,3.60
2017-06-24T21:10:40.510Z,3.00
2017-06-24T21:13:09.517Z,3.57
2017-06-24T21:15:37.809Z,3.53
2017-06-24T21:18:06.086Z,3.83
2017-06-24T21:20:34.377Z,3.47
2017-06-24T21:23:02.694Z,10.07
2017-06-24T21:25:31.742Z,7.13
2017-06-24T21:28:00.109Z,4.77
2017-06-24T21:30:28.436Z,5.13
2017-06-24T21:32:57.525Z,4.70
2017-06-24T21:35:25.748Z,6.20
2017-06-24T21:37:53.998Z,8.03
2017-06-24T21:40:22.228Z,6.57
2017-06-24T21:42:50.503Z,5.87
2017-06-24T21:45:18.734Z,6.10
2017-06-24T21:47:47.005Z,5.13
2017-06-24T21:50:15.251Z,5.10
2017-06-24T21:52:43.585Z,4.27
2017-06-24T21:55:11.845Z,4.63
2017-06-24T21:57:40.077Z,4.77
2017-06-24T22:00:08.406Z,4.40
2017-06-24T22:02:36.649Z,4.00
2017-06-24T22:05:05.776Z,4.27
2017-06-24T22:07:34.015Z,4.70
2017-06-24T22:10:03.067Z,5.50
2017-06-24T22:12:31.345Z,4.60
2017-06-24T22:14:59.577Z,4.80
2017-06-24T22:17:28.071Z,4.17
2017-06-24T22:19:56.370Z,8.10
2017-06-24T22:22:24.611Z,6.70
2017-06-24T22:24:52.904Z,4.90
2017-06-24T22:27:21.205Z,4.57
2017-06-24T22:29:49.553Z,4.60
2017-06-24T22:32:17.830Z,3.60
2017-06-24T22:34:46.093Z,4.50
2017-06-24T22:37:14.330Z,3.80
2017-06-24T22:39:42.577Z,3.90
2017-06-24T22:42:10.895Z,3.80
2017-06-24T22:44:39.908Z,4.10
2017-06-24T22:47:08.204Z,4.00
2017-06-24T22:49:36.583Z,3.87
2017-06-24T22:52:04.808Z,4.07
2017-06-24T22:54:33.813Z,5.30
2017-06-24T22:57:02.827Z,4.30
2017-06-24T22:59:31.071Z,7.07
2017-06-24T23:01:59.389Z,5.63
2017-06-24T23:04:27.722Z,5.60
2017-06-24T23:06:56.041Z,5.50
2017-06-24T23:09:24.377Z,4.80
2017-06-24T23:11:53.455Z,6.13
2017-06-24T23:14:21.801Z,5.97
2017-06-24T23:16:50.065Z,7.70
2017-06-24T23:19:18.389Z,7.10
2017-06-24T23:21:46.635Z,7.03
2017-06-24T23:24:14.887Z,5.87
2017-06-24T23:26:43.169Z,4.80
2017-06-24T23:29:11.518Z,4.70
2017-06-24T23:31:39.777Z,4.57
2017-06-24T23:34:08.004Z,4.30
2017-06-24T23:36:36.261Z,3.80
2017-06-24T23:39:04.574Z,4.53
2017-06-24T23:41:32.933Z,4.03
2017-06-24T23:44:01.166Z,4.60
2017-06-24T23:46:30.184Z,4.10
2017-06-24T23:48:58.484Z,4.90
2017-06-24T23:51:26.849Z,4.70
2017-06-24T23:53:55.092Z,4.60
2017-06-24T23:56:23.329Z,5.43
2017-06-24T23:58:51.690Z,5.07
